createdAt,value
2023-01-20T00:01:44.494Z,48.37
2023-01-20T00:04:12.896Z,48.07
2023-01-20T00:06:41.689Z,47.86
2023-01-20T00:09:15.705Z,47.81
2023-01-20T00:11:44.219Z,48.11
2023-01-20T00:14:12.824Z,48.15
2023-01-20T00:16:41.666Z,48.28
2023-01-20T00:19:12.845Z,48.48
2023-01-20T00:21:41.777Z,48.68
2023-01-20T00:24:10.019Z,49.05
2023-01-20T00:26:38.272Z,49.12
2023-01-20T00:29:06.675Z,49.25
2023-01-20T00:31:35.607Z,49.24
2023-01-20T00:34:04.261Z,49.33
2023-01-20T00:36:33.158Z,49.49
2023-01-20T00:39:01.961Z,49.79
2023-01-20T00:41:31.229Z,49.98
2023-01-20T00:44:00.109Z,50.28
2023-01-20T00:46:28.608Z,50.10
2023-01-20T00:48:57.024Z,49.78
2023-01-20T00:51:25.881Z,50.10
2023-01-20T00:53:54.059Z,50.75
2023-01-20T00:56:22.580Z,50.85
2023-01-20T00:58:51.207Z,50.92
2023-01-20T01:01:19.589Z,51.18
2023-01-20T01:03:48.129Z,51.48
2023-01-20T01:06:18.199Z,51.70
2023-01-20T01:08:46.860Z,51.48
2023-01-20T01:11:15.552Z,51.82
2023-01-20T01:13:43.775Z,51.76
2023-01-20T01:16:14.174Z,51.46
2023-01-20T01:18:43.886Z,51.10
2023-01-20T01:21:15.784Z,51.19
2023-01-20T01:23:45.132Z,51.02
2023-01-20T01:26:13.924Z,51.15
2023-01-20T01:28:42.319Z,51.25
2023-01-20T01:31:11.207Z,50.87
2023-01-20T01:33:39.545Z,51.14
2023-01-20T01:36:10.184Z,51.44
2023-01-20T01:38:38.677Z,51.52
2023-01-20T01:41:07.064Z,51.70
2023-01-20T01:43:38.216Z,51.59
2023-01-20T01:46:07.544Z,51.71
2023-01-20T01:48:46.184Z,51.56
2023-01-20T01:51:21.207Z,51.67
2023-01-20T01:53:55.357Z,51.97
2023-01-20T01:56:26.836Z,51.46
2023-01-20T01:59:00.046Z,51.54
2023-01-20T02:01:30.095Z,51.52
2023-01-20T02:04:04.257Z,51.36
2023-01-20T02:06:34.245Z,51.12
2023-01-20T02:09:04.816Z,51.45
2023-01-20T02:11:42.200Z,51.98
2023-01-20T02:14:11.040Z,52.86
2023-01-20T02:16:57.849Z,52.52
2023-01-20T02:19:53.836Z,52.37
2023-01-20T02:22:39.913Z,53.20
2023-01-20T02:25:11.011Z,53.35
2023-01-20T02:27:55.280Z,54.44
2023-01-20T02:30:26.559Z,54.50
2023-01-20T02:33:13.925Z,53.95
2023-01-20T02:35:46.919Z,54.01
2023-01-20T02:38:45.654Z,54.70
2023-01-20T02:41:23.396Z,54.65
2023-01-20T02:44:11.952Z,54.36
2023-01-20T02:46:53.251Z,54.19
2023-01-20T02:49:31.603Z,54.47
2023-01-20T02:52:17.193Z,54.43
2023-01-20T02:54:50.040Z,54.29
2023-01-20T02:57:25.855Z,54.18
2023-01-20T03:00:00.456Z,54.15
2023-01-20T03:02:32.882Z,54.40
2023-01-20T03:05:09.365Z,54.35
2023-01-20T03:07:41.352Z,54.29
2023-01-20T03:10:14.645Z,54.44
2023-01-20T03:12:54.079Z,54.30
2023-01-20T03:15:28.786Z,54.35
2023-01-20T03:17:57.948Z,54.52
2023-01-20T03:20:26.159Z,54.20
2023-01-20T03:22:55.155Z,54.27
2023-01-20T03:25:24.246Z,54.67
2023-01-20T03:27:52.554Z,54.59
2023-01-20T03:30:22.097Z,54.66
2023-01-20T03:32:53.626Z,54.72
2023-01-20T03:35:23.371Z,54.87
2023-01-20T03:37:51.836Z,54.75
2023-01-20T03:40:23.419Z,54.79
2023-01-20T03:43:21.240Z,54.80
2023-01-20T03:46:03.300Z,55.00
2023-01-20T03:48:53.786Z,54.74
2023-01-20T03:51:33.640Z,55.11
2023-01-20T03:54:09.856Z,55.21
2023-01-20T03:56:50.528Z,55.19
2023-01-20T03:59:21.447Z,55.23
2023-01-20T04:01:50.304Z,55.27
2023-01-20T04:04:20.059Z,55.31
2023-01-20T04:06:51.412Z,55.01
2023-01-20T04:09:29.121Z,55.03
2023-01-20T04:11:57.601Z,55.11
2023-01-20T04:14:26.160Z,55.20
2023-01-20T04:16:57.154Z,55.41
2023-01-20T04:19:26.391Z,55.82
2023-01-20T04:22:32.050Z,56.01
2023-01-20T04:25:13.988Z,56.11
2023-01-20T04:27:42.698Z,56.18
2023-01-20T04:30:13.013Z,56.54
2023-01-20T04:32:41.185Z,56.49
2023-01-20T04:35:19.944Z,56.49
2023-01-20T04:37:48.234Z,56.54
2023-01-20T04:40:17.039Z,56.51
2023-01-20T04:42:45.555Z,56.67
2023-01-20T04:45:17.853Z,56.44
2023-01-20T04:47:46.342Z,56.64
2023-01-20T04:50:15.250Z,56.60
2023-01-20T04:52:44.111Z,56.89
2023-01-20T04:55:13.599Z,56.99
2023-01-20T04:57:41.996Z,57.35
2023-01-20T05:00:11.724Z,57.62
2023-01-20T05:02:40.584Z,57.65
2023-01-20T05:05:09.406Z,57.63
2023-01-20T05:07:37.598Z,57.59
2023-01-20T05:10:06.535Z,57.64
2023-01-20T05:12:34.815Z,57.78
2023-01-20T05:15:03.558Z,57.56
2023-01-20T05:17:31.937Z,57.70
2023-01-20T05:20:00.182Z,57.73
2023-01-20T05:22:29.368Z,57.82
2023-01-20T05:24:57.820Z,58.09
2023-01-20T05:27:26.255Z,58.11
2023-01-20T05:29:54.696Z,58.05
2023-01-20T05:32:23.319Z,58.13
2023-01-20T05:34:53.314Z,58.13
2023-01-20T05:37:21.537Z,58.07
2023-01-20T05:39:49.979Z,58.04
2023-01-20T05:42:18.270Z,57.89
2023-01-20T05:44:46.536Z,57.96
2023-01-20T05:47:15.154Z,58.11
2023-01-20T05:49:43.412Z,58.16
2023-01-20T05:52:11.577Z,58.43
2023-01-20T05:54:40.293Z,58.57
2023-01-20T05:57:08.653Z,58.87
2023-01-20T05:59:36.965Z,58.90
2023-01-20T06:02:05.445Z,59.06
2023-01-20T06:04:33.659Z,59.04
2023-01-20T06:07:02.400Z,58.98
2023-01-20T06:09:30.880Z,59.03
2023-01-20T06:11:59.082Z,58.89
2023-01-20T06:14:27.257Z,59.34
2023-01-20T06:16:55.831Z,59.18
2023-01-20T06:19:24.205Z,59.26
2023-01-20T06:21:52.569Z,59.49
2023-01-20T06:24:20.705Z,59.52
2023-01-20T06:26:50.959Z,59.57
2023-01-20T06:29:19.987Z,59.49
2023-01-20T06:31:48.745Z,59.26
2023-01-20T06:34:20.377Z,59.63
2023-01-20T06:36:49.045Z,59.57
2023-01-20T06:39:17.526Z,59.66
2023-01-20T06:41:45.802Z,59.71
2023-01-20T06:44:14.192Z,59.64
2023-01-20T06:46:43.907Z,59.62
2023-01-20T06:49:12.974Z,59.45
2023-01-20T06:51:41.289Z,59.64
2023-01-20T06:54:09.572Z,59.18
2023-01-20T06:56:37.857Z,59.49
2023-01-20T06:59:06.121Z,59.59
2023-01-20T07:01:34.457Z,59.58
2023-01-20T07:04:03.202Z,59.44
2023-01-20T07:06:37.888Z,59.27
2023-01-20T07:09:09.061Z,59.17
2023-01-20T07:11:37.420Z,59.10
2023-01-20T07:14:06.946Z,59.08
2023-01-20T07:16:35.332Z,59.03
2023-01-20T07:19:12.436Z,59.04
2023-01-20T07:21:40.844Z,58.97
2023-01-20T07:24:11.589Z,58.97
2023-01-20T07:26:40.611Z,59.12
2023-01-20T07:29:09.068Z,59.03
2023-01-20T07:31:37.351Z,59.02
2023-01-20T07:34:05.857Z,58.88
2023-01-20T07:36:33.994Z,58.74
2023-01-20T07:39:02.992Z,58.67
2023-01-20T07:41:31.437Z,58.51
2023-01-20T07:43:59.604Z,58.52
2023-01-20T07:46:27.900Z,58.25
2023-01-20T07:48:56.542Z,58.21
2023-01-20T07:51:24.837Z,57.13
2023-01-20T07:53:53.181Z,54.74
2023-01-20T07:56:24.630Z,52.74
2023-01-20T07:58:56.132Z,50.20
2023-01-20T08:01:27.082Z,47.62
2023-01-20T08:03:56.494Z,44.34
2023-01-20T08:06:26.576Z,43.03
2023-01-20T08:08:58.624Z,41.87
2023-01-20T08:11:27.036Z,40.23
2023-01-20T08:13:55.504Z,38.25
2023-01-20T08:16:25.447Z,36.89
2023-01-20T08:18:55.431Z,34.95
2023-01-20T08:21:34.236Z,32.91
2023-01-20T08:24:04.798Z,31.10
2023-01-20T08:26:34.600Z,29.85
2023-01-20T08:29:10.192Z,29.31
2023-01-20T08:31:40.075Z,29.45
2023-01-20T08:34:08.502Z,29.39
2023-01-20T08:36:39.361Z,28.84
2023-01-20T08:39:11.056Z,29.05
2023-01-20T08:41:42.615Z,28.40
2023-01-20T08:44:11.893Z,27.40
2023-01-20T08:46:41.922Z,26.32
2023-01-20T08:49:15.531Z,25.26
2023-01-20T08:51:44.594Z,25.91
2023-01-20T08:54:12.822Z,26.58
2023-01-20T08:56:41.685Z,26.16
2023-01-20T08:59:11.370Z,25.61
2023-01-20T09:01:40.006Z,25.80
2023-01-20T09:04:08.372Z,26.29
2023-01-20T09:06:48.896Z,25.46
2023-01-20T09:09:20.252Z,24.53
2023-01-20T09:11:49.683Z,23.43
2023-01-20T09:14:24.259Z,22.47
2023-01-20T09:16:52.791Z,21.80
2023-01-20T09:19:21.205Z,21.06
2023-01-20T09:21:50.146Z,20.20
2023-01-20T09:24:20.815Z,19.96
2023-01-20T09:26:50.617Z,19.69
2023-01-20T09:29:21.426Z,19.71
2023-01-20T09:31:55.825Z,20.61
2023-01-20T09:34:26.578Z,21.45
2023-01-20T09:36:59.424Z,22.32
2023-01-20T09:39:30.782Z,22.91
2023-01-20T09:42:03.982Z,22.92
2023-01-20T09:44:35.259Z,22.80
2023-01-20T09:47:24.393Z,22.97
2023-01-20T09:50:06.493Z,23.82
2023-01-20T09:52:37.583Z,24.42
2023-01-20T09:55:17.350Z,24.42
2023-01-20T09:57:52.347Z,24.75
2023-01-20T10:00:24.392Z,25.02
2023-01-20T10:03:01.787Z,25.25
2023-01-20T10:05:37.859Z,25.26
2023-01-20T10:08:19.026Z,24.87
2023-01-20T10:10:50.727Z,24.04
2023-01-20T10:13:29.451Z,23.18
2023-01-20T10:15:57.683Z,22.05
2023-01-20T10:18:42.846Z,20.91
2023-01-20T10:21:27.165Z,19.90
2023-01-20T10:24:00.590Z,19.28
2023-01-20T10:26:45.847Z,18.78
2023-01-20T10:29:38.925Z,18.52
2023-01-20T10:35:25.331Z,17.31
2023-01-20T10:37:54.777Z,17.15
2023-01-20T10:40:40.335Z,16.74
2023-01-20T10:43:17.723Z,16.49
2023-01-20T10:46:07.591Z,15.65
2023-01-20T10:48:54.390Z,15.52
2023-01-20T10:51:46.731Z,15.41
2023-01-20T10:54:31.330Z,15.28
2023-01-20T10:57:04.871Z,15.15
2023-01-20T10:59:42.882Z,14.74
2023-01-20T11:02:23.297Z,14.51
2023-01-20T11:05:27.004Z,14.20
2023-01-20T11:07:58.774Z,14.10
2023-01-20T11:10:32.577Z,14.25
2023-01-20T11:13:02.641Z,13.93
2023-01-20T11:15:38.169Z,13.80
2023-01-20T11:18:23.226Z,13.67
2023-01-20T11:20:56.034Z,13.56
2023-01-20T11:23:30.798Z,13.45
2023-01-20T11:26:08.604Z,13.51
2023-01-20T11:28:49.127Z,13.38
2023-01-20T11:31:17.763Z,13.45
2023-01-20T11:34:04.315Z,13.39
2023-01-20T11:36:32.300Z,13.47
2023-01-20T11:39:00.635Z,13.23
2023-01-20T11:41:31.013Z,13.22
2023-01-20T11:44:00.912Z,12.90
2023-01-20T11:46:31.859Z,12.98
2023-01-20T11:49:26.966Z,13.13
2023-01-20T11:51:58.392Z,13.01
2023-01-20T11:54:29.209Z,12.93
2023-01-20T11:57:07.424Z,12.66
2023-01-20T11:59:37.111Z,12.57
2023-01-20T12:02:23.929Z,12.22
2023-01-20T12:05:12.917Z,12.43
2023-01-20T12:07:51.514Z,12.90
2023-01-20T12:10:37.303Z,13.53
2023-01-20T12:13:26.940Z,13.99
2023-01-20T12:15:59.368Z,14.61
2023-01-20T12:18:41.885Z,15.11
2023-01-20T12:21:18.076Z,15.60
2023-01-20T12:23:53.576Z,16.10
2023-01-20T12:26:24.060Z,16.20
2023-01-20T12:29:04.605Z,16.78
2023-01-20T12:31:33.232Z,17.23
2023-01-20T12:34:07.590Z,17.42
2023-01-20T12:37:04.819Z,17.82
2023-01-20T12:40:15.161Z,18.34
2023-01-20T12:43:06.881Z,18.41
2023-01-20T12:46:01.010Z,18.45
2023-01-20T12:48:44.051Z,18.64
2023-01-20T12:51:28.721Z,18.74
2023-01-20T12:54:25.925Z,18.98
2023-01-20T12:57:20.084Z,19.05
2023-01-20T13:00:30.352Z,18.97
2023-01-20T13:03:33.081Z,18.82
2023-01-20T13:06:37.692Z,19.12
2023-01-20T13:09:11.519Z,19.44
2023-01-20T13:11:55.334Z,19.71
2023-01-20T13:14:36.291Z,19.95
2023-01-20T13:17:49.512Z,20.15
2023-01-20T13:20:26.349Z,19.95
2023-01-20T13:22:56.471Z,19.95
2023-01-20T13:25:25.476Z,20.00
2023-01-20T13:27:54.773Z,20.08
2023-01-20T13:30:57.136Z,21.11
2023-01-20T13:33:42.042Z,22.05
2023-01-20T13:36:24.420Z,21.95
2023-01-20T13:39:44.851Z,21.80
2023-01-20T13:42:51.453Z,21.59
2023-01-20T13:45:22.140Z,21.79
2023-01-20T13:48:02.414Z,23.10
2023-01-20T13:50:40.552Z,26.79
2023-01-20T13:53:21.225Z,28.91
2023-01-20T13:55:55.024Z,31.43
2023-01-20T13:58:27.273Z,31.38
2023-01-20T14:00:58.764Z,33.35
2023-01-20T14:03:29.357Z,33.60
2023-01-20T14:06:05.569Z,33.33
2023-01-20T14:08:45.180Z,32.46
2023-01-20T14:11:18.386Z,31.52
2023-01-20T14:14:18.268Z,32.04
2023-01-20T14:16:47.673Z,33.13
2023-01-20T14:19:27.706Z,36.00
2023-01-20T14:21:59.019Z,39.68
2023-01-20T14:24:38.072Z,40.29
2023-01-20T14:27:18.526Z,40.93
2023-01-20T14:29:49.073Z,41.12
2023-01-20T14:32:35.005Z,40.81
2023-01-20T14:35:15.597Z,41.29
2023-01-20T14:37:44.297Z,41.41
2023-01-20T14:40:12.323Z,42.70
2023-01-20T14:42:40.517Z,42.27
2023-01-20T14:45:20.383Z,41.61
2023-01-20T14:47:50.122Z,40.92
2023-01-20T14:50:20.218Z,40.79
2023-01-20T14:52:49.032Z,40.45
2023-01-20T14:55:30.319Z,41.55
2023-01-20T14:57:59.239Z,41.93
2023-01-20T15:00:32.510Z,42.55
2023-01-20T15:03:19.997Z,43.40
2023-01-20T15:06:22.120Z,43.94
2023-01-20T15:09:05.660Z,44.29
2023-01-20T15:11:35.668Z,44.04
2023-01-20T15:14:03.839Z,43.44
2023-01-20T15:16:42.278Z,42.48
2023-01-20T15:19:16.603Z,43.42
2023-01-20T15:21:48.590Z,44.80
2023-01-20T15:24:22.491Z,44.81
2023-01-20T15:26:53.994Z,44.32
2023-01-20T15:29:26.168Z,44.44
2023-01-20T15:31:56.379Z,44.96
2023-01-20T15:34:26.999Z,45.39
2023-01-20T15:36:56.356Z,45.60
2023-01-20T15:39:27.780Z,44.78
2023-01-20T15:42:00.009Z,44.45
2023-01-20T15:44:28.970Z,45.20
2023-01-20T15:46:57.840Z,48.14
2023-01-20T15:49:26.509Z,49.33
2023-01-20T15:51:54.743Z,47.79
2023-01-20T15:54:22.946Z,47.47
2023-01-20T15:56:51.273Z,47.64
2023-01-20T15:59:21.805Z,48.01
2023-01-20T16:01:51.100Z,48.76
2023-01-20T16:04:19.900Z,50.58
2023-01-20T16:06:48.105Z,51.16
2023-01-20T16:09:26.738Z,50.45
2023-01-20T16:11:55.448Z,51.02
2023-01-20T16:14:23.629Z,50.55
2023-01-20T16:16:51.875Z,49.81
2023-01-20T16:19:19.970Z,49.11
2023-01-20T16:21:48.077Z,49.24
2023-01-20T16:24:16.321Z,50.23
2023-01-20T16:26:47.118Z,52.08
2023-01-20T16:29:16.328Z,52.28
2023-01-20T16:31:44.537Z,52.28
2023-01-20T16:34:12.757Z,52.52
2023-01-20T16:36:41.179Z,52.50
2023-01-20T16:39:11.028Z,52.48
2023-01-20T16:41:39.276Z,52.92
2023-01-20T16:44:08.109Z,53.22
2023-01-20T16:46:38.136Z,53.25
2023-01-20T16:49:06.396Z,51.98
2023-01-20T16:51:35.183Z,52.36
2023-01-20T16:54:03.675Z,52.36
2023-01-20T16:56:32.990Z,52.26
2023-01-20T16:59:03.475Z,52.45
2023-01-20T17:01:31.965Z,52.52
2023-01-20T17:04:02.859Z,52.30
2023-01-20T17:06:34.154Z,52.15
2023-01-20T17:09:05.205Z,52.84
2023-01-20T17:11:36.692Z,52.73
2023-01-20T17:14:09.197Z,53.33
2023-01-20T17:16:38.987Z,53.98
2023-01-20T17:19:07.184Z,53.51
2023-01-20T17:21:38.745Z,53.21
2023-01-20T17:24:07.555Z,52.62
2023-01-20T17:26:36.522Z,52.26
2023-01-20T17:29:06.070Z,52.43
2023-01-20T17:31:35.723Z,53.03
2023-01-20T17:34:05.244Z,53.33
2023-01-20T17:36:35.486Z,54.34
2023-01-20T17:39:05.850Z,55.02
2023-01-20T17:41:34.464Z,55.41
2023-01-20T17:44:03.371Z,55.69
2023-01-20T17:46:32.184Z,55.68
2023-01-20T17:49:00.946Z,56.38
2023-01-20T17:51:32.058Z,56.07
2023-01-20T17:54:03.532Z,55.54
2023-01-20T17:56:32.476Z,55.21
2023-01-20T17:59:00.949Z,55.45
2023-01-20T18:01:31.747Z,55.16
2023-01-20T18:04:01.520Z,54.87
2023-01-20T18:06:30.102Z,54.89
2023-01-20T18:08:59.566Z,54.84
2023-01-20T18:11:31.143Z,54.79
2023-01-20T18:14:00.949Z,55.68
2023-01-20T18:16:40.723Z,57.04
2023-01-20T18:19:13.731Z,56.66
2023-01-20T18:21:43.586Z,56.27
2023-01-20T18:24:12.649Z,56.17
2023-01-20T18:26:42.062Z,56.04
2023-01-20T18:29:14.607Z,55.90
2023-01-20T18:31:43.405Z,55.76
2023-01-20T18:34:14.286Z,56.29
2023-01-20T18:36:44.880Z,56.21
2023-01-20T18:39:22.131Z,56.50
2023-01-20T18:41:51.682Z,55.99
2023-01-20T18:44:20.573Z,55.76
2023-01-20T18:46:49.485Z,55.71
2023-01-20T18:49:18.281Z,55.50
2023-01-20T18:51:46.715Z,55.70
2023-01-20T18:54:18.837Z,55.71
2023-01-20T18:56:47.555Z,55.61
2023-01-20T18:59:16.324Z,55.45
2023-01-20T19:01:44.687Z,55.74
2023-01-20T19:04:13.293Z,55.52
2023-01-20T19:06:43.847Z,55.35
2023-01-20T19:09:13.172Z,55.07
2023-01-20T19:11:42.403Z,55.07
2023-01-20T19:14:15.060Z,54.89
2023-01-20T19:16:43.533Z,54.86
2023-01-20T19:19:12.219Z,55.11
2023-01-20T19:21:41.101Z,54.90
2023-01-20T19:24:14.621Z,54.83
2023-01-20T19:26:42.962Z,54.75
2023-01-20T19:29:13.387Z,54.73
2023-01-20T19:31:42.020Z,54.72
2023-01-20T19:34:10.772Z,54.75
2023-01-20T19:36:39.491Z,54.78
2023-01-20T19:39:07.880Z,54.78
2023-01-20T19:41:36.641Z,54.57
2023-01-20T19:44:05.964Z,54.46
2023-01-20T19:46:37.498Z,54.54
2023-01-20T19:49:06.463Z,54.57
2023-01-20T19:51:34.638Z,54.46
2023-01-20T19:54:03.495Z,54.35
2023-01-20T19:56:34.656Z,54.41
2023-01-20T19:59:04.305Z,54.40
2023-01-20T20:01:35.101Z,54.48
2023-01-20T20:04:09.226Z,54.46
2023-01-20T20:06:39.972Z,54.42
2023-01-20T20:09:12.204Z,54.57
2023-01-20T20:11:40.419Z,54.56
2023-01-20T20:14:12.258Z,54.60
2023-01-20T20:16:40.864Z,54.61
2023-01-20T20:19:11.500Z,54.66
2023-01-20T20:21:39.726Z,54.59
2023-01-20T20:24:08.327Z,54.80
2023-01-20T20:26:37.998Z,54.93
2023-01-20T20:29:07.771Z,54.87
2023-01-20T20:31:36.435Z,54.94
2023-01-20T20:34:06.252Z,54.98
2023-01-20T20:36:35.542Z,54.98
2023-01-20T20:39:04.727Z,55.02
2023-01-20T20:41:33.094Z,55.16
2023-01-20T20:44:02.474Z,55.32
2023-01-20T20:46:31.293Z,55.30
2023-01-20T20:49:01.363Z,55.45
2023-01-20T20:51:32.414Z,55.46
2023-01-20T20:54:03.010Z,55.59
2023-01-20T20:56:32.095Z,55.62
2023-01-20T20:59:03.902Z,55.62
2023-01-20T21:01:34.333Z,55.79
2023-01-20T21:04:03.915Z,55.78
2023-01-20T21:06:33.304Z,55.87
2023-01-20T21:09:01.542Z,55.96
2023-01-20T21:11:29.756Z,56.02
2023-01-20T21:13:58.317Z,56.05
2023-01-20T21:16:26.741Z,56.08
2023-01-20T21:18:56.445Z,56.15
2023-01-20T21:21:25.258Z,56.28
2023-01-20T21:23:56.291Z,56.25
2023-01-20T21:26:28.965Z,56.27
2023-01-20T21:28:59.368Z,56.26
2023-01-20T21:31:27.620Z,56.25
2023-01-20T21:33:58.146Z,56.26
2023-01-20T21:36:27.735Z,56.31
2023-01-20T21:38:56.009Z,56.30
2023-01-20T21:41:24.158Z,56.27
2023-01-20T21:43:52.338Z,56.33
2023-01-20T21:46:21.087Z,56.29
2023-01-20T21:48:50.072Z,56.33
2023-01-20T21:51:18.358Z,56.34
2023-01-20T21:53:46.467Z,56.37
2023-01-20T21:56:18.079Z,56.41
2023-01-20T21:58:46.397Z,56.42
2023-01-20T22:01:15.191Z,56.44
2023-01-20T22:03:43.350Z,56.46
2023-01-20T22:06:12.248Z,56.51
2023-01-20T22:08:41.646Z,56.49
2023-01-20T22:11:09.731Z,56.62
2023-01-20T22:13:37.884Z,56.64
2023-01-20T22:16:06.550Z,56.72
2023-01-20T22:18:34.723Z,56.82
2023-01-20T22:21:08.420Z,56.77
2023-01-20T22:23:37.867Z,56.74
2023-01-20T22:26:06.496Z,56.78
2023-01-20T22:28:34.980Z,56.81
2023-01-20T22:31:08.317Z,56.84
2023-01-20T22:33:36.858Z,56.84
2023-01-20T22:36:06.271Z,56.85
2023-01-20T22:38:34.466Z,56.85
2023-01-20T22:41:04.759Z,56.91
2023-01-20T22:43:33.098Z,56.84
2023-01-20T22:46:05.427Z,56.84
2023-01-20T22:48:38.634Z,56.76
2023-01-20T22:51:13.264Z,56.76
2023-01-20T22:53:41.859Z,56.78
2023-01-20T22:56:19.666Z,56.83
2023-01-20T22:58:48.323Z,56.82
2023-01-20T23:01:24.197Z,56.81
2023-01-20T23:03:58.204Z,56.88
2023-01-20T23:06:29.136Z,56.96
2023-01-20T23:08:57.247Z,57.08
2023-01-20T23:11:25.541Z,57.02
2023-01-20T23:13:53.868Z,57.10
2023-01-20T23:16:23.347Z,57.06
2023-01-20T23:18:52.315Z,57.12
2023-01-20T23:21:21.770Z,57.13
2023-01-20T23:23:50.284Z,57.23
2023-01-20T23:26:19.109Z,57.40
2023-01-20T23:28:47.815Z,57.36
2023-01-20T23:31:17.247Z,57.41
2023-01-20T23:33:45.949Z,57.49
2023-01-20T23:36:18.038Z,57.66
2023-01-20T23:38:46.606Z,57.70
2023-01-20T23:41:15.697Z,57.93
2023-01-20T23:43:44.541Z,57.98
2023-01-20T23:46:12.631Z,58.00
2023-01-20T23:48:41.533Z,58.15
2023-01-20T23:51:10.101Z,58.27
2023-01-20T23:53:39.378Z,58.32
2023-01-20T23:56:19.859Z,58.46
2023-01-20T23:58:48.825Z,58.49
